RPC8134 RPLL-RPUX
Flight info
| Callsign | RPC8134 |
|---|---|
| Flight time | 0h 30m |
| Altitude | 1500 |
| Route | VFR TO RPUX |
| Aircraft | C172/L-V/N |
Departure
| Time | 2026-04-26 13:43 |
|---|---|
| Airport | Ninoy Aquino International Airport (RPLL) |
Arrival
| Time | 2026-04-26 14:13 |
|---|---|
| Airport | Plaridel Airport (RPUX) |
| Time | Latitude | Longitude | Altitude | Speed | Heading |
|---|---|---|---|---|---|
| 2026-04-26 13:10 | 14.51784 | 121.00524 | 4 ft | 0 kts | 143° |
| 2026-04-26 13:16 | 14.51784 | 121.00525 | 4 ft | 0 kts | 143° |
| 2026-04-26 13:16 | 14.51783 | 121.00525 | 4 ft | 0 kts | 143° |
| 2026-04-26 13:20 | 14.51782 | 121.00525 | 4 ft | 0 kts | 143° |
| 2026-04-26 13:21 | 14.51782 | 121.00526 | 4 ft | 0 kts | 143° |
| 2026-04-26 13:24 | 14.51781 | 121.00526 | 4 ft | 0 kts | 143° |
| 2026-04-26 13:26 | 14.51781 | 121.00527 | 4 ft | 0 kts | 143° |
| 2026-04-26 13:28 | 14.51780 | 121.00527 | 4 ft | 0 kts | 140° |
| 2026-04-26 13:28 | 14.51780 | 121.00528 | 4 ft | 0 kts | 140° |
| 2026-04-26 13:30 | 14.51779 | 121.00528 | 4 ft | 0 kts | 140° |
| 2026-04-26 13:31 | 14.51777 | 121.00532 | 4 ft | 1 kts | 98° |
| 2026-04-26 13:31 | 14.51778 | 121.00536 | 4 ft | 0 kts | 49° |
| 2026-04-26 13:32 | 14.51779 | 121.00536 | 4 ft | 0 kts | 49° |
| 2026-04-26 13:34 | 14.51779 | 121.00537 | 4 ft | 0 kts | 49° |
| 2026-04-26 13:37 | 14.51780 | 121.00537 | 4 ft | 0 kts | 49° |
| 2026-04-26 13:37 | 14.51780 | 121.00538 | 4 ft | 1 kts | 49° |
| 2026-04-26 13:37 | 14.51805 | 121.00554 | 4 ft | 7 kts | 23° |
| 2026-04-26 13:38 | 14.51859 | 121.00584 | 4 ft | 9 kts | 39° |
| 2026-04-26 13:38 | 14.51931 | 121.00608 | 4 ft | 13 kts | 7° |
| 2026-04-26 13:38 | 14.52009 | 121.00622 | 4 ft | 7 kts | 9° |
| 2026-04-26 13:38 | 14.52021 | 121.00624 | 4 ft | 1 kts | 8° |
| 2026-04-26 13:39 | 14.52048 | 121.00628 | 4 ft | 0 kts | 9° |
| 2026-04-26 13:39 | 14.52049 | 121.00628 | 4 ft | 0 kts | 9° |
| 2026-04-26 13:40 | 14.52055 | 121.00629 | 4 ft | 4 kts | 9° |
| 2026-04-26 13:41 | 14.52109 | 121.00637 | 4 ft | 9 kts | 5° |
| 2026-04-26 13:41 | 14.52127 | 121.00656 | 4 ft | 0 kts | 138° |
| 2026-04-26 13:41 | 14.52126 | 121.00656 | 4 ft | 0 kts | 138° |
| 2026-04-26 13:42 | 14.52120 | 121.00662 | 4 ft | 4 kts | 138° |
| 2026-04-26 13:42 | 14.51992 | 121.00794 | 7 ft | 54 kts | 135° |
| 2026-04-26 13:42 | 14.51675 | 121.01124 | 177 ft | 69 kts | 134° |
| 2026-04-26 13:42 | 14.51342 | 121.01472 | 453 ft | 67 kts | 133° |
| 2026-04-26 13:43 | 14.51026 | 121.01820 | 715 ft | 67 kts | 134° |
| 2026-04-26 13:43 | 14.50717 | 121.02184 | 967 ft | 68 kts | 135° |
| 2026-04-26 13:43 | 14.50409 | 121.02568 | 1201 ft | 71 kts | 136° |
| 2026-04-26 13:43 | 14.50094 | 121.02967 | 1418 ft | 75 kts | 137° |
| 2026-04-26 13:44 | 14.49699 | 121.03372 | 1483 ft | 86 kts | 145° |
| 2026-04-26 13:44 | 14.49240 | 121.03796 | 1458 ft | 92 kts | 141° |
| 2026-04-26 13:44 | 14.48772 | 121.04274 | 1473 ft | 96 kts | 142° |
| 2026-04-26 13:44 | 14.48284 | 121.04752 | 1470 ft | 99 kts | 142° |
| 2026-04-26 13:45 | 14.47780 | 121.05246 | 1466 ft | 100 kts | 142° |
| 2026-04-26 13:45 | 14.47260 | 121.05726 | 1467 ft | 99 kts | 151° |
| 2026-04-26 13:45 | 14.46622 | 121.05906 | 1457 ft | 95 kts | 189° |
| 2026-04-26 13:45 | 14.46058 | 121.05609 | 1451 ft | 92 kts | 226° |
| 2026-04-26 13:46 | 14.45659 | 121.05092 | 1452 ft | 92 kts | 233° |
| 2026-04-26 13:46 | 14.45271 | 121.04568 | 1456 ft | 91 kts | 233° |
| 2026-04-26 13:46 | 14.44894 | 121.04036 | 1450 ft | 92 kts | 233° |
| 2026-04-26 13:46 | 14.44504 | 121.03513 | 1452 ft | 92 kts | 232° |
| 2026-04-26 13:47 | 14.44111 | 121.02996 | 1460 ft | 91 kts | 232° |
| 2026-04-26 13:47 | 14.43742 | 121.02460 | 1460 ft | 92 kts | 236° |
| 2026-04-26 13:47 | 14.43408 | 121.01892 | 1439 ft | 94 kts | 239° |
| 2026-04-26 13:47 | 14.43338 | 121.01250 | 1426 ft | 99 kts | 284° |
| 2026-04-26 13:48 | 14.43748 | 121.00659 | 1415 ft | 101 kts | 303° |
| 2026-04-26 13:48 | 14.44193 | 121.00109 | 1446 ft | 99 kts | 306° |
| 2026-04-26 13:48 | 14.44653 | 120.99589 | 1463 ft | 98 kts | 307° |
| 2026-04-26 13:48 | 14.45121 | 120.99072 | 1464 ft | 99 kts | 308° |
| 2026-04-26 13:49 | 14.45589 | 120.98548 | 1464 ft | 99 kts | 307° |
| 2026-04-26 13:49 | 14.46051 | 120.98016 | 1456 ft | 100 kts | 305° |
| 2026-04-26 13:49 | 14.46497 | 120.97464 | 1453 ft | 100 kts | 305° |
| 2026-04-26 13:49 | 14.46958 | 120.96927 | 1456 ft | 100 kts | 307° |
| 2026-04-26 13:50 | 14.47433 | 120.96400 | 1454 ft | 100 kts | 309° |
| 2026-04-26 13:50 | 14.47923 | 120.95888 | 1459 ft | 100 kts | 309° |
| 2026-04-26 13:50 | 14.48409 | 120.95377 | 1467 ft | 99 kts | 309° |
| 2026-04-26 13:50 | 14.48919 | 120.94892 | 1475 ft | 101 kts | 320° |
| 2026-04-26 13:51 | 14.49603 | 120.94676 | 1452 ft | 108 kts | 355° |
| 2026-04-26 13:51 | 14.50362 | 120.94776 | 1431 ft | 111 kts | 7° |
| 2026-04-26 13:51 | 14.51105 | 120.94949 | 1424 ft | 111 kts | 11° |
| 2026-04-26 13:51 | 14.51847 | 120.95151 | 1436 ft | 109 kts | 12° |
| 2026-04-26 13:52 | 14.52574 | 120.95374 | 1447 ft | 109 kts | 14° |
| 2026-04-26 13:52 | 14.53310 | 120.95558 | 1436 ft | 109 kts | 4° |
| 2026-04-26 13:52 | 14.54065 | 120.95611 | 1438 ft | 108 kts | 357° |
| 2026-04-26 13:52 | 14.54809 | 120.95584 | 1447 ft | 107 kts | 352° |
| 2026-04-26 13:53 | 14.55550 | 120.95543 | 1449 ft | 107 kts | 352° |
| 2026-04-26 13:53 | 14.56038 | 120.95486 | 1444 ft | 106 kts | 346° |
| 2026-04-26 13:53 | 14.56985 | 120.95223 | 1446 ft | 105 kts | 337° |
| 2026-04-26 13:53 | 14.57445 | 120.95069 | 1449 ft | 105 kts | 337° |
| 2026-04-26 13:54 | 14.58139 | 120.94840 | 1458 ft | 104 kts | 337° |
| 2026-04-26 13:54 | 14.58832 | 120.94626 | 1466 ft | 104 kts | 340° |
| 2026-04-26 13:54 | 14.59538 | 120.94449 | 1466 ft | 105 kts | 342° |
| 2026-04-26 13:55 | 14.60961 | 120.94112 | 1471 ft | 105 kts | 343° |
| 2026-04-26 13:55 | 14.61439 | 120.94020 | 1472 ft | 106 kts | 347° |
| 2026-04-26 13:55 | 14.63152 | 120.93811 | 1469 ft | 107 kts | 351° |
| 2026-04-26 13:56 | 14.63892 | 120.93745 | 1471 ft | 106 kts | 349° |
| 2026-04-26 13:56 | 14.64619 | 120.93639 | 1484 ft | 105 kts | 346° |
| 2026-04-26 13:56 | 14.65339 | 120.93525 | 1491 ft | 105 kts | 346° |
| 2026-04-26 13:56 | 14.66059 | 120.93413 | 1499 ft | 104 kts | 347° |
| 2026-04-26 13:57 | 14.66777 | 120.93304 | 1506 ft | 104 kts | 347° |
| 2026-04-26 13:57 | 14.67499 | 120.93202 | 1503 ft | 105 kts | 348° |
| 2026-04-26 13:57 | 14.68229 | 120.93115 | 1503 ft | 106 kts | 349° |
| 2026-04-26 13:57 | 14.68962 | 120.93043 | 1498 ft | 106 kts | 351° |
| 2026-04-26 13:58 | 14.69696 | 120.92994 | 1484 ft | 108 kts | 353° |
| 2026-04-26 13:58 | 14.70446 | 120.92952 | 1475 ft | 108 kts | 352° |
| 2026-04-26 13:58 | 14.71194 | 120.92910 | 1474 ft | 107 kts | 353° |
| 2026-04-26 13:58 | 14.71938 | 120.92873 | 1481 ft | 106 kts | 352° |
| 2026-04-26 13:59 | 14.72671 | 120.92812 | 1490 ft | 105 kts | 349° |
| 2026-04-26 13:59 | 14.73393 | 120.92706 | 1498 ft | 104 kts | 344° |
| 2026-04-26 13:59 | 14.74094 | 120.92524 | 1499 ft | 104 kts | 338° |
| 2026-04-26 14:00 | 14.75710 | 120.92085 | 1490 ft | 78 kts | 33° |
| 2026-04-26 14:00 | 14.76486 | 120.92317 | 1262 ft | 113 kts | 338° |
| 2026-04-26 14:00 | 14.76842 | 120.92021 | 1424 ft | 90 kts | 303° |
| 2026-04-26 14:01 | 14.77388 | 120.91530 | 1764 ft | 59 kts | 322° |
| 2026-04-26 14:01 | 14.77687 | 120.91225 | 1549 ft | 94 kts | 295° |
| 2026-04-26 14:01 | 14.78123 | 120.90703 | 1503 ft | 103 kts | 320° |
| 2026-04-26 14:01 | 14.78745 | 120.90309 | 1463 ft | 106 kts | 325° |
| 2026-04-26 14:02 | 14.79386 | 120.89938 | 1457 ft | 105 kts | 328° |
| 2026-04-26 14:02 | 14.80073 | 120.89676 | 1466 ft | 105 kts | 336° |
| 2026-04-26 14:02 | 14.80763 | 120.89436 | 1473 ft | 104 kts | 336° |
| 2026-04-26 14:02 | 14.81471 | 120.89241 | 1454 ft | 107 kts | 345° |
| 2026-04-26 14:03 | 14.82216 | 120.89121 | 1440 ft | 108 kts | 348° |
| 2026-04-26 14:03 | 14.82887 | 120.88882 | 1453 ft | 98 kts | 299° |
| 2026-04-26 14:03 | 14.82640 | 120.88413 | 1449 ft | 93 kts | 181° |
| 2026-04-26 14:03 | 14.82399 | 120.88969 | 1455 ft | 107 kts | 59° |
| 2026-04-26 14:04 | 14.82991 | 120.89018 | 1497 ft | 92 kts | 305° |
| 2026-04-26 14:04 | 14.83406 | 120.88534 | 1528 ft | 96 kts | 331° |
| 2026-04-26 14:04 | 14.84014 | 120.88792 | 1521 ft | 106 kts | 63° |
| 2026-04-26 14:04 | 14.83880 | 120.89456 | 1535 ft | 98 kts | 148° |
| 2026-04-26 14:05 | 14.83283 | 120.89423 | 1522 ft | 90 kts | 225° |
| 2026-04-26 14:05 | 14.83250 | 120.88831 | 1533 ft | 95 kts | 304° |
| 2026-04-26 14:05 | 14.83881 | 120.88573 | 1528 ft | 103 kts | 344° |
| 2026-04-26 14:05 | 14.84595 | 120.88452 | 1562 ft | 100 kts | 346° |
| 2026-04-26 14:06 | 14.85169 | 120.88384 | 1992 ft | 69 kts | 2° |
| 2026-04-26 14:06 | 14.85559 | 120.88320 | 1994 ft | 58 kts | 28° |
| 2026-04-26 14:06 | 14.86027 | 120.88508 | 1037 ft | 112 kts | 25° |
| 2026-04-26 14:06 | 14.86632 | 120.88571 | 1480 ft | 82 kts | 324° |
| 2026-04-26 14:07 | 14.86779 | 120.88096 | 1571 ft | 82 kts | 238° |
| 2026-04-26 14:07 | 14.86225 | 120.88110 | 1569 ft | 103 kts | 135° |
| 2026-04-26 14:07 | 14.86146 | 120.88829 | 1857 ft | 86 kts | 82° |
| 2026-04-26 14:07 | 14.86200 | 120.89191 | 2349 ft | 38 kts | 47° |
| 2026-04-26 14:08 | 14.85893 | 120.89106 | 1250 ft | 91 kts | 200° |
| 2026-04-26 14:08 | 14.85495 | 120.88720 | 1511 ft | 83 kts | 255° |
| 2026-04-26 14:08 | 14.85764 | 120.88162 | 1474 ft | 103 kts | 324° |
| 2026-04-26 14:08 | 14.86518 | 120.87980 | 1320 ft | 110 kts | 346° |
| 2026-04-26 14:09 | 14.87136 | 120.87661 | 1056 ft | 96 kts | 311° |
| 2026-04-26 14:09 | 14.87571 | 120.87163 | 949 ft | 95 kts | 309° |
| 2026-04-26 14:09 | 14.88022 | 120.86670 | 934 ft | 93 kts | 311° |
| 2026-04-26 14:09 | 14.88544 | 120.86310 | 946 ft | 92 kts | 354° |
| 2026-04-26 14:10 | 14.89172 | 120.86345 | 950 ft | 91 kts | 7° |
| 2026-04-26 14:10 | 14.89806 | 120.86410 | 963 ft | 91 kts | 8° |
| 2026-04-26 14:10 | 14.90453 | 120.86461 | 967 ft | 95 kts | 4° |
| 2026-04-26 14:10 | 14.91095 | 120.86473 | 972 ft | 93 kts | 357° |
| 2026-04-26 14:11 | 14.92141 | 120.86010 | 897 ft | 72 kts | 281° |
| 2026-04-26 14:11 | 14.92163 | 120.85522 | 773 ft | 67 kts | 261° |
| 2026-04-26 14:11 | 14.92003 | 120.85104 | 631 ft | 63 kts | 216° |
| 2026-04-26 14:12 | 14.91604 | 120.84991 | 525 ft | 54 kts | 174° |
| 2026-04-26 14:12 | 14.91250 | 120.85021 | 466 ft | 51 kts | 169° |
| 2026-04-26 14:12 | 14.90901 | 120.85062 | 387 ft | 51 kts | 167° |
| 2026-04-26 14:12 | 14.90542 | 120.85108 | 298 ft | 53 kts | 167° |
| 2026-04-26 14:13 | 14.89831 | 120.85191 | 131 ft | 52 kts | 168° |
| 2026-04-26 14:13 | 14.89472 | 120.85232 | 37 ft | 52 kts | 167° |
| 2026-04-26 14:13 | 14.89182 | 120.85265 | 24 ft | 32 kts | 172° |
| 2026-04-26 14:14 | 14.88998 | 120.85285 | 24 ft | 23 kts | 175° |
| 2026-04-26 14:14 | 14.88844 | 120.85302 | 24 ft | 21 kts | 173° |
| 2026-04-26 14:14 | 14.88763 | 120.85317 | 24 ft | 5 kts | 130° |
| 2026-04-26 14:14 | 14.88778 | 120.85341 | 24 ft | 6 kts | 41° |
| 2026-04-26 14:15 | 14.88828 | 120.85345 | 24 ft | 10 kts | 353° |
| 2026-04-26 14:15 | 14.88904 | 120.85336 | 24 ft | 12 kts | 354° |
| 2026-04-26 14:15 | 14.88996 | 120.85327 | 24 ft | 14 kts | 353° |
| 2026-04-26 14:15 | 14.89102 | 120.85314 | 24 ft | 16 kts | 354° |
| 2026-04-26 14:16 | 14.89175 | 120.85307 | 24 ft | 6 kts | 355° |
| 2026-04-26 14:16 | 14.89206 | 120.85304 | 24 ft | 0 kts | 354° |
| 2026-04-26 14:16 | 14.89208 | 120.85303 | 24 ft | 0 kts | 354° |
| 2026-04-26 14:17 | 14.89213 | 120.85304 | 24 ft | 4 kts | 23° |
| 2026-04-26 14:17 | 14.89208 | 120.85341 | 24 ft | 5 kts | 91° |
| 2026-04-26 14:17 | 14.89209 | 120.85349 | 24 ft | 1 kts | 85° |
| 2026-04-26 14:17 | 14.89214 | 120.85356 | 24 ft | 2 kts | 346° |
| 2026-04-26 14:18 | 14.89222 | 120.85354 | 24 ft | 2 kts | 355° |
| 2026-04-26 14:18 | 14.89227 | 120.85353 | 24 ft | 0 kts | 353° |
| 2026-04-26 14:18 | 14.89228 | 120.85353 | 24 ft | 0 kts | 353° |